createdAt,value
2019-02-21T00:01:47.661Z,30.77
2019-02-21T00:04:16.149Z,33.55
2019-02-21T00:06:44.632Z,29.12
2019-02-21T00:09:13.185Z,30.12
2019-02-21T00:11:41.565Z,34.92
2019-02-21T00:14:09.973Z,27.35
2019-02-21T00:16:38.380Z,26.40
2019-02-21T00:19:06.808Z,27.58
2019-02-21T00:21:35.460Z,28.20
2019-02-21T00:24:03.879Z,26.62
2019-02-21T00:26:32.314Z,30.68
2019-02-21T00:29:01.042Z,29.52
2019-02-21T00:31:29.422Z,31.15
2019-02-21T00:33:58.081Z,30.25
2019-02-21T00:36:26.499Z,33.33
2019-02-21T00:38:54.914Z,26.40
2019-02-21T00:41:23.621Z,30.90
2019-02-21T00:43:52.012Z,30.50
2019-02-21T00:46:20.421Z,24.55
2019-02-21T00:48:49.076Z,28.30
2019-02-21T00:51:17.532Z,28.57
2019-02-21T00:53:46.192Z,24.70
2019-02-21T00:56:14.625Z,24.43
2019-02-21T00:58:43.293Z,34.67
2019-02-21T01:01:11.713Z,27.73
2019-02-21T01:03:40.120Z,28.98
2019-02-21T01:06:08.539Z,28.45
2019-02-21T01:08:37.192Z,26.77
2019-02-21T01:11:06.113Z,27.80
2019-02-21T01:13:34.516Z,31.33
2019-02-21T01:16:02.951Z,27.25
2019-02-21T01:18:31.354Z,27.45
2019-02-21T01:20:59.774Z,29.67
2019-02-21T01:23:28.217Z,26.15
2019-02-21T01:25:56.613Z,30.20
2019-02-21T01:28:25.021Z,25.27
2019-02-21T01:30:57.083Z,24.95
2019-02-21T01:33:24.089Z,25.88
2019-02-21T01:35:52.499Z,28.35
2019-02-21T01:38:20.982Z,29.80
2019-02-21T01:40:49.383Z,31.33
2019-02-21T01:43:18.109Z,28.50
2019-02-21T01:45:46.795Z,39.80
2019-02-21T01:48:15.473Z,28.42
2019-02-21T01:50:43.887Z,28.57
2019-02-21T01:53:12.307Z,28.35
2019-02-21T01:55:40.710Z,29.15
2019-02-21T01:58:09.699Z,31.07
2019-02-21T02:00:39.679Z,29.70
2019-02-21T02:03:08.395Z,32.42
2019-02-21T02:05:37.058Z,26.50
2019-02-21T02:08:05.462Z,28.27
2019-02-21T02:10:33.863Z,28.90
2019-02-21T02:13:02.289Z,28.35
2019-02-21T02:15:30.711Z,31.02
2019-02-21T02:17:59.124Z,27.75
2019-02-21T02:20:27.528Z,33.00
2019-02-21T02:22:56.191Z,28.15
2019-02-21T02:25:24.843Z,30.45
2019-02-21T02:27:53.256Z,27.77
2019-02-21T02:30:22.003Z,32.25
2019-02-21T02:32:50.421Z,30.45
2019-02-21T02:35:18.824Z,28.38
2019-02-21T02:37:47.246Z,28.83
2019-02-21T02:40:15.917Z,29.85
2019-02-21T02:42:44.343Z,29.35
2019-02-21T02:45:12.827Z,32.88
2019-02-21T02:47:41.300Z,31.97
2019-02-21T02:50:10.094Z,33.92
2019-02-21T02:52:38.586Z,33.02
2019-02-21T02:55:07.166Z,30.92
2019-02-21T02:57:35.630Z,29.50
2019-02-21T03:00:06.431Z,32.95
2019-02-21T03:02:34.845Z,34.43
2019-02-21T03:05:03.260Z,31.52
2019-02-21T03:07:31.664Z,32.30
2019-02-21T03:10:00.137Z,34.18
2019-02-21T03:12:28.672Z,32.48
2019-02-21T03:14:57.089Z,41.02
2019-02-21T03:17:25.754Z,33.55
2019-02-21T03:19:54.159Z,33.70
2019-02-21T03:22:22.599Z,33.75
2019-02-21T03:24:51.063Z,33.00
2019-02-21T03:27:19.861Z,36.93
2019-02-21T03:29:48.266Z,33.05
2019-02-21T03:32:16.703Z,33.53
2019-02-21T03:34:45.508Z,33.00
2019-02-21T03:37:14.103Z,34.08
2019-02-21T03:39:42.515Z,36.85
2019-02-21T03:42:11.020Z,33.53
2019-02-21T03:44:39.422Z,34.03
2019-02-21T03:47:08.098Z,33.88
2019-02-21T03:49:36.755Z,32.40
2019-02-21T03:52:05.178Z,32.30
2019-02-21T03:54:33.856Z,36.15
2019-02-21T03:57:02.266Z,36.40
2019-02-21T03:59:30.677Z,36.53
2019-02-21T04:02:05.415Z,37.58
2019-02-21T04:04:29.641Z,34.60
2019-02-21T04:06:58.058Z,32.67
2019-02-21T04:09:26.459Z,35.92
2019-02-21T04:11:54.872Z,36.45
2019-02-21T04:14:23.291Z,39.05
2019-02-21T04:16:51.715Z,34.30
2019-02-21T04:19:20.115Z,34.92
2019-02-21T04:21:48.517Z,39.27
2019-02-21T04:24:16.938Z,35.00
2019-02-21T04:26:45.345Z,38.78
2019-02-21T04:29:13.771Z,35.73
2019-02-21T04:31:42.185Z,36.77
2019-02-21T04:34:10.609Z,38.25
2019-02-21T04:36:39.014Z,37.40
2019-02-21T04:39:07.436Z,36.68
2019-02-21T04:41:36.226Z,34.50
2019-02-21T04:44:04.703Z,38.17
2019-02-21T04:46:33.072Z,32.33
2019-02-21T04:49:01.483Z,34.63
2019-02-21T04:51:29.905Z,39.40
2019-02-21T04:53:58.319Z,35.25
2019-02-21T04:56:27.013Z,35.55
2019-02-21T04:58:55.453Z,35.85
2019-02-21T05:01:23.842Z,34.75
2019-02-21T05:03:52.238Z,39.42
2019-02-21T05:06:20.947Z,36.83
2019-02-21T05:08:49.352Z,37.20
2019-02-21T05:11:17.779Z,36.17
2019-02-21T05:13:46.487Z,34.92
2019-02-21T05:16:15.206Z,37.42
2019-02-21T05:18:43.967Z,36.42
2019-02-21T05:21:12.377Z,37.08
2019-02-21T05:23:40.783Z,36.15
2019-02-21T05:26:11.113Z,35.58
2019-02-21T05:28:41.248Z,38.88
2019-02-21T05:31:11.789Z,35.83
2019-02-21T05:33:56.841Z,39.00
2019-02-21T05:36:43.363Z,37.23
2019-02-21T05:39:25.357Z,38.70
2019-02-21T05:42:01.625Z,35.65
2019-02-21T05:44:33.637Z,30.77
2019-02-21T05:47:06.582Z,35.33
2019-02-21T05:49:39.667Z,33.65
2019-02-21T05:52:18.762Z,33.25
2019-02-21T05:54:48.819Z,34.13
2019-02-21T05:57:24.790Z,33.18
2019-02-21T06:00:11.395Z,34.70
2019-02-21T06:02:59.682Z,38.10
2019-02-21T06:05:35.699Z,36.25
2019-02-21T06:08:08.434Z,39.90
2019-02-21T06:10:44.043Z,37.50
2019-02-21T06:13:23.260Z,36.38
2019-02-21T06:15:55.775Z,41.75
2019-02-21T06:18:31.941Z,36.17
2019-02-21T06:21:16.944Z,35.88
2019-02-21T06:23:49.701Z,34.98
2019-02-21T06:26:19.758Z,34.40
2019-02-21T06:28:49.823Z,30.62
2019-02-21T06:31:18.229Z,34.90
2019-02-21T06:33:49.328Z,39.83
2019-02-21T06:36:16.792Z,35.00
2019-02-21T06:38:45.218Z,36.55
2019-02-21T06:41:13.619Z,32.93
2019-02-21T06:43:42.124Z,36.13
2019-02-21T06:46:10.543Z,35.85
2019-02-21T06:48:38.941Z,34.75
2019-02-21T06:51:07.366Z,36.05
2019-02-21T06:53:35.781Z,35.58
2019-02-21T06:56:04.178Z,39.00
2019-02-21T06:58:32.608Z,36.13
2019-02-21T07:01:01.026Z,30.88
2019-02-21T07:03:29.426Z,35.68
2019-02-21T07:05:58.115Z,37.95
2019-02-21T07:08:26.517Z,32.98
2019-02-21T07:11:05.439Z,34.88
2019-02-21T07:13:27.008Z,37.83
2019-02-21T07:15:55.635Z,32.38
2019-02-21T07:18:24.043Z,38.35
2019-02-21T07:20:52.787Z,37.80
2019-02-21T07:23:21.770Z,37.55
2019-02-21T07:25:51.362Z,30.57
2019-02-21T07:28:19.771Z,36.15
2019-02-21T07:30:49.071Z,32.73
2019-02-21T07:33:27.759Z,30.12
2019-02-21T07:35:48.019Z,33.50
2019-02-21T07:38:17.286Z,32.67
2019-02-21T07:40:45.841Z,31.82
2019-02-21T07:43:14.249Z,34.83
2019-02-21T07:45:42.669Z,34.48
2019-02-21T07:48:11.078Z,34.35
2019-02-21T07:50:39.498Z,38.25
2019-02-21T07:53:07.910Z,33.55
2019-02-21T07:55:36.330Z,36.88
2019-02-21T07:58:04.804Z,36.17
2019-02-21T08:00:33.218Z,32.42
2019-02-21T08:03:01.629Z,32.05
2019-02-21T08:05:30.051Z,34.27
2019-02-21T08:07:58.471Z,34.13
2019-02-21T08:10:33.487Z,36.55
2019-02-21T08:12:57.384Z,33.45
2019-02-21T08:15:27.760Z,36.38
2019-02-21T08:17:55.876Z,33.70
2019-02-21T08:20:33.645Z,34.45
2019-02-21T08:22:54.423Z,36.58
2019-02-21T08:25:22.831Z,38.45
2019-02-21T08:27:51.579Z,35.48
2019-02-21T08:30:19.977Z,36.88
2019-02-21T08:33:01.538Z,38.73
2019-02-21T08:35:31.235Z,40.75
2019-02-21T08:37:59.904Z,41.18
2019-02-21T08:40:28.330Z,35.70
2019-02-21T08:42:56.733Z,34.92
2019-02-21T08:45:25.208Z,39.13
2019-02-21T08:47:53.644Z,33.90
2019-02-21T08:50:22.529Z,31.23
2019-02-21T08:52:51.100Z,37.23
2019-02-21T08:55:19.905Z,39.33
2019-02-21T08:57:48.603Z,39.13
2019-02-21T09:00:17.361Z,35.78
2019-02-21T09:02:45.789Z,35.92
2019-02-21T09:05:14.431Z,33.58
2019-02-21T09:07:42.909Z,34.73
2019-02-21T09:10:12.669Z,35.78
2019-02-21T09:12:41.424Z,34.78
2019-02-21T09:15:15.211Z,34.35
2019-02-21T09:17:43.702Z,35.40
2019-02-21T09:20:12.911Z,33.35
2019-02-21T09:22:41.312Z,33.65
2019-02-21T09:25:11.669Z,40.65
2019-02-21T09:27:40.083Z,36.65
2019-02-21T09:30:13.827Z,37.35
2019-02-21T09:32:42.314Z,41.08
2019-02-21T09:35:10.745Z,37.65
2019-02-21T09:37:39.298Z,35.45
2019-02-21T09:40:10.830Z,38.50
2019-02-21T09:42:39.693Z,34.90
2019-02-21T09:45:10.926Z,38.95
2019-02-21T09:47:39.335Z,36.60
2019-02-21T09:50:09.383Z,35.98
2019-02-21T09:52:37.818Z,35.38
2019-02-21T09:55:09.523Z,35.03
2019-02-21T09:57:38.257Z,40.65
2019-02-21T10:00:13.069Z,35.03
2019-02-21T10:02:42.185Z,35.00
2019-02-21T10:05:10.749Z,31.50
2019-02-21T10:07:39.176Z,34.35
2019-02-21T10:10:10.635Z,35.33
2019-02-21T10:12:39.063Z,39.63
2019-02-21T10:15:10.130Z,36.90
2019-02-21T10:17:38.909Z,34.25
2019-02-21T10:20:12.851Z,31.70
2019-02-21T10:22:41.310Z,35.73
2019-02-21T10:25:13.053Z,33.33
2019-02-21T10:27:41.476Z,33.75
2019-02-21T10:30:13.503Z,36.83
2019-02-21T10:35:09.781Z,32.65
2019-02-21T10:37:38.213Z,35.40
2019-02-21T10:40:12.335Z,30.40
2019-02-21T10:42:41.034Z,31.40
2019-02-21T10:45:15.186Z,33.45
2019-02-21T10:47:43.679Z,33.25
2019-02-21T10:50:17.227Z,34.80
2019-02-21T10:52:45.644Z,33.30
2019-02-21T10:55:14.815Z,32.05
2019-02-21T10:57:45.329Z,38.98
2019-02-21T11:00:16.288Z,33.92
2019-02-21T11:02:44.734Z,33.65
2019-02-21T11:05:13.481Z,34.25
2019-02-21T11:07:41.901Z,36.33
2019-02-21T11:10:12.852Z,35.43
2019-02-21T11:12:41.275Z,41.20
2019-02-21T11:15:14.678Z,40.88
2019-02-21T11:17:43.121Z,39.25
2019-02-21T11:20:14.155Z,38.53
2019-02-21T11:22:42.581Z,38.55
2019-02-21T11:25:12.034Z,31.52
2019-02-21T11:27:40.935Z,38.25
2019-02-21T11:30:14.456Z,42.48
2019-02-21T11:32:42.916Z,43.98
2019-02-21T11:35:11.471Z,40.10
2019-02-21T11:37:43.384Z,34.92
2019-02-21T11:40:12.560Z,35.50
2019-02-21T11:42:40.990Z,40.03
2019-02-21T11:45:17.399Z,38.75
2019-02-21T11:47:46.191Z,41.05
2019-02-21T11:50:17.232Z,37.80
2019-02-21T11:52:46.019Z,38.80
2019-02-21T11:55:22.467Z,38.17
2019-02-21T11:57:50.946Z,41.58
2019-02-21T12:00:24.442Z,37.17
2019-02-21T12:02:52.850Z,41.35
2019-02-21T12:05:30.688Z,45.23
2019-02-21T12:07:51.860Z,39.78
2019-02-21T12:10:20.313Z,35.88
2019-02-21T12:12:48.744Z,41.77
2019-02-21T12:15:17.644Z,36.98
2019-02-21T12:17:46.051Z,39.67
2019-02-21T12:20:18.546Z,37.33
2019-02-21T12:22:47.307Z,40.78
2019-02-21T12:25:21.495Z,43.33
2019-02-21T12:27:49.904Z,36.42
2019-02-21T12:30:20.344Z,41.85
2019-02-21T12:32:48.758Z,36.90
2019-02-21T12:35:28.779Z,41.02
2019-02-21T12:37:47.343Z,42.75
2019-02-21T12:40:20.064Z,38.73
2019-02-21T12:42:48.493Z,42.40
2019-02-21T12:45:21.186Z,39.40
2019-02-21T12:47:53.526Z,40.83
2019-02-21T12:50:19.753Z,42.25
2019-02-21T12:52:48.196Z,43.45
2019-02-21T12:55:27.177Z,44.65
2019-02-21T12:57:46.761Z,47.03
2019-02-21T13:00:19.943Z,43.23
2019-02-21T13:02:48.361Z,42.75
2019-02-21T13:05:16.765Z,42.27
2019-02-21T13:07:45.504Z,45.98
2019-02-21T13:10:21.693Z,48.23
2019-02-21T13:12:50.454Z,41.77
2019-02-21T13:15:18.887Z,42.62
2019-02-21T13:17:47.310Z,47.45
2019-02-21T13:20:15.996Z,42.70
2019-02-21T13:22:44.424Z,46.18
2019-02-21T13:25:17.158Z,50.90
2019-02-21T13:27:45.914Z,49.88
2019-02-21T13:30:19.269Z,51.58
2019-02-21T13:32:47.678Z,50.12
2019-02-21T13:35:16.476Z,49.08
2019-02-21T13:37:44.975Z,48.28
2019-02-21T13:40:16.974Z,50.03
2019-02-21T13:45:17.386Z,46.15
2019-02-21T13:47:45.343Z,47.35
2019-02-21T13:50:17.834Z,52.03
2019-02-21T13:52:46.260Z,45.52
2019-02-21T13:55:14.678Z,41.55
2019-02-21T13:57:43.363Z,50.35
2019-02-21T14:00:20.444Z,47.80
2019-02-21T14:02:49.010Z,46.77
2019-02-21T14:05:17.743Z,47.23
2019-02-21T14:07:46.501Z,42.55
2019-02-21T14:10:15.356Z,43.98
2019-02-21T14:12:43.773Z,44.23
2019-02-21T14:15:18.096Z,41.98
2019-02-21T14:17:46.927Z,46.98
2019-02-21T14:20:15.898Z,43.40
2019-02-21T14:22:44.287Z,46.50
2019-02-21T14:25:12.707Z,44.93
2019-02-21T14:27:41.106Z,50.00
2019-02-21T14:30:19.427Z,49.73
2019-02-21T14:32:48.220Z,47.48
2019-02-21T14:35:17.032Z,54.70
2019-02-21T14:37:45.435Z,57.20
2019-02-21T14:40:15.389Z,58.17
2019-02-21T14:42:43.824Z,52.62
2019-02-21T14:45:15.043Z,56.80
2019-02-21T14:47:43.448Z,58.25
2019-02-21T14:50:12.642Z,59.65
2019-02-21T14:52:41.047Z,54.38
2019-02-21T14:55:11.807Z,62.15
2019-02-21T14:57:41.313Z,61.50
2019-02-21T15:00:21.584Z,57.55
2019-02-21T15:02:49.994Z,66.22
2019-02-21T15:05:19.255Z,69.20
2019-02-21T15:07:47.940Z,68.05
2019-02-21T15:10:16.482Z,66.92
2019-02-21T15:12:45.213Z,62.70
2019-02-21T15:15:16.715Z,73.40
2019-02-21T15:17:45.135Z,74.17
2019-02-21T15:20:15.618Z,68.72
2019-02-21T15:22:44.354Z,67.00
2019-02-21T15:25:13.045Z,72.75
2019-02-21T15:27:41.471Z,65.67
2019-02-21T15:30:18.274Z,64.47
2019-02-21T15:32:46.698Z,63.40
2019-02-21T15:35:15.290Z,62.90
2019-02-21T15:37:45.090Z,56.33
2019-02-21T15:40:14.176Z,59.33
2019-02-21T15:42:42.586Z,54.27
2019-02-21T15:45:23.347Z,55.75
2019-02-21T15:47:49.718Z,57.05
2019-02-21T15:50:19.910Z,57.90
2019-02-21T15:52:48.719Z,65.85
2019-02-21T15:55:18.461Z,56.65
2019-02-21T15:57:46.893Z,62.88
2019-02-21T16:00:20.144Z,59.42
2019-02-21T16:02:48.605Z,57.05
2019-02-21T16:05:17.312Z,59.08
2019-02-21T16:07:45.724Z,57.73
2019-02-21T16:10:20.058Z,61.58
2019-02-21T16:12:48.770Z,55.95
2019-02-21T16:15:18.176Z,62.50
2019-02-21T16:17:46.592Z,55.15
2019-02-21T16:20:16.681Z,59.45
2019-02-21T16:22:45.449Z,59.08
2019-02-21T16:25:28.079Z,58.83
2019-02-21T16:27:56.495Z,45.55
2019-02-21T16:30:24.900Z,42.93
2019-02-21T16:32:53.650Z,47.50
2019-02-21T16:35:22.051Z,46.88
2019-02-21T16:37:50.839Z,44.23
2019-02-21T16:40:20.785Z,47.13
2019-02-21T16:42:49.528Z,46.33
2019-02-21T16:45:21.919Z,44.55
2019-02-21T16:47:50.595Z,44.50
2019-02-21T16:50:29.309Z,33.95
2019-02-21T16:52:49.484Z,34.03
2019-02-21T16:55:20.052Z,32.90
2019-02-21T16:57:48.422Z,31.85
2019-02-21T17:00:22.597Z,27.32
2019-02-21T17:02:51.093Z,26.97
2019-02-21T17:05:19.825Z,29.37
2019-02-21T17:07:48.231Z,27.02
2019-02-21T17:10:17.299Z,26.42
2019-02-21T17:12:46.065Z,27.40
2019-02-21T17:15:16.386Z,23.10
2019-02-21T17:17:44.801Z,24.35
2019-02-21T17:20:18.306Z,22.00
2019-02-21T17:22:46.741Z,30.65
2019-02-21T17:25:15.977Z,24.00
2019-02-21T17:27:45.448Z,27.30
2019-02-21T17:30:18.040Z,28.98
2019-02-21T17:32:46.793Z,27.00
2019-02-21T17:35:15.641Z,28.42
2019-02-21T17:37:44.060Z,29.92
2019-02-21T17:40:15.554Z,29.92
2019-02-21T17:42:43.982Z,37.38
2019-02-21T17:45:13.141Z,29.82
2019-02-21T17:47:42.047Z,37.15
2019-02-21T17:50:13.464Z,33.80
2019-02-21T17:52:42.220Z,41.23
2019-02-21T17:55:11.470Z,40.85
2019-02-21T17:57:39.893Z,38.95
2019-02-21T18:00:21.603Z,32.98
2019-02-21T18:02:50.113Z,39.42
2019-02-21T18:05:18.520Z,44.50
2019-02-21T18:07:47.248Z,42.75
2019-02-21T18:10:16.949Z,41.88
2019-02-21T18:12:45.390Z,39.85
2019-02-21T18:15:15.367Z,42.30
2019-02-21T18:17:43.770Z,37.17
2019-02-21T18:20:14.352Z,42.35
2019-02-21T18:22:42.795Z,45.65
2019-02-21T18:25:29.298Z,35.98
2019-02-21T18:27:57.728Z,41.65
2019-02-21T18:30:26.130Z,35.70
2019-02-21T18:32:54.536Z,40.25
2019-02-21T18:35:23.049Z,36.95
2019-02-21T18:37:51.461Z,35.78
2019-02-21T18:40:22.460Z,38.40
2019-02-21T18:42:50.922Z,36.42
2019-02-21T18:45:19.417Z,37.08
2019-02-21T18:47:47.900Z,36.75
2019-02-21T18:50:16.318Z,35.23
2019-02-21T18:52:44.728Z,34.27
2019-02-21T18:55:13.483Z,32.53
2019-02-21T18:57:41.987Z,30.30
2019-02-21T19:00:19.467Z,33.50
2019-02-21T19:02:47.944Z,35.45
2019-02-21T19:05:16.416Z,32.60
2019-02-21T19:07:45.093Z,30.82
2019-02-21T19:10:16.901Z,32.00
2019-02-21T19:12:45.308Z,34.75
2019-02-21T19:15:15.373Z,37.40
2019-02-21T19:17:43.883Z,36.70
2019-02-21T19:20:17.126Z,35.60
2019-02-21T19:23:04.867Z,35.65
2019-02-21T19:25:33.553Z,38.25
2019-02-21T19:28:02.865Z,40.80
2019-02-21T19:30:40.696Z,42.48
2019-02-21T19:33:09.291Z,44.55
2019-02-21T19:35:37.718Z,44.33
2019-02-21T19:38:10.785Z,38.70
2019-02-21T19:40:39.026Z,39.45
2019-02-21T19:43:07.435Z,44.15
2019-02-21T19:45:35.855Z,35.85
2019-02-21T19:48:04.484Z,41.68
2019-02-21T19:50:33.369Z,40.20
2019-02-21T19:53:01.955Z,40.50
2019-02-21T19:55:30.896Z,46.70
2019-02-21T19:57:59.606Z,47.38
2019-02-21T20:00:30.226Z,48.45
2019-02-21T20:02:58.658Z,50.03
2019-02-21T20:05:27.521Z,55.00
2019-02-21T20:07:56.320Z,51.45
2019-02-21T20:10:25.300Z,52.67
2019-02-21T20:12:54.698Z,55.73
2019-02-21T20:15:24.088Z,61.25
2019-02-21T20:17:52.535Z,58.00
2019-02-21T20:20:28.851Z,64.40
2019-02-21T20:22:57.280Z,75.40
2019-02-21T20:25:25.707Z,101.20
2019-02-21T20:27:54.538Z,78.42
2019-02-21T20:30:23.499Z,88.15
2019-02-21T20:32:52.119Z,89.28
2019-02-21T20:35:22.593Z,89.32
2019-02-21T20:37:51.012Z,115.30
2019-02-21T20:40:19.776Z,90.32
2019-02-21T20:42:48.176Z,108.57
2019-02-21T20:45:16.664Z,112.70
2019-02-21T20:47:46.001Z,116.17
2019-02-21T20:50:14.699Z,112.57
2019-02-21T20:52:43.133Z,118.57
2019-02-21T20:55:12.222Z,105.35
2019-02-21T20:57:41.017Z,128.70
2019-02-21T21:00:13.825Z,130.57
2019-02-21T21:02:43.279Z,123.70
2019-02-21T21:05:15.009Z,143.28
2019-02-21T21:07:43.889Z,150.93
2019-02-21T21:10:15.278Z,151.15
2019-02-21T21:12:44.067Z,148.00
2019-02-21T21:15:14.028Z,168.28
2019-02-21T21:17:42.565Z,143.20
2019-02-21T21:20:17.383Z,130.72
2019-02-21T21:22:46.097Z,142.72
2019-02-21T21:25:15.981Z,150.45
2019-02-21T21:27:44.386Z,134.85
2019-02-21T21:30:14.656Z,120.62
2019-02-21T21:32:43.342Z,121.15
2019-02-21T21:35:11.836Z,123.18
2019-02-21T21:37:40.335Z,112.32
2019-02-21T21:40:15.368Z,114.17
2019-02-21T21:42:43.855Z,135.70
2019-02-21T21:45:16.807Z,135.03
2019-02-21T21:47:45.250Z,136.37
2019-02-21T21:50:18.562Z,132.57
2019-02-21T21:52:47.017Z,122.17
2019-02-21T21:55:15.501Z,153.23
2019-02-21T21:57:44.010Z,138.43
2019-02-21T22:00:23.591Z,163.22
2019-02-21T22:02:52.011Z,204.32
2019-02-21T22:05:22.462Z,165.43
2019-02-21T22:07:51.229Z,194.62
2019-02-21T22:10:19.761Z,171.77
2019-02-21T22:12:48.270Z,173.38
2019-02-21T22:15:19.921Z,184.60
2019-02-21T22:17:48.405Z,215.68
2019-02-21T22:20:17.083Z,247.93
2019-02-21T22:22:45.511Z,225.45
2019-02-21T22:25:14.552Z,280.15
2019-02-21T22:27:42.991Z,230.37
2019-02-21T22:30:19.773Z,200.75
2019-02-21T22:32:48.220Z,180.18
2019-02-21T22:35:17.022Z,203.88
2019-02-21T22:37:45.491Z,190.47
2019-02-21T22:40:18.051Z,231.05
2019-02-21T22:42:46.823Z,237.95
2019-02-21T22:45:15.626Z,235.97
2019-02-21T22:47:44.319Z,259.90
2019-02-21T22:50:17.397Z,223.30
2019-02-21T22:52:45.832Z,254.57
2019-02-21T22:55:14.565Z,228.32
2019-02-21T22:57:42.977Z,212.65
2019-02-21T23:00:53.818Z,221.93
2019-02-21T23:03:23.990Z,258.02
2019-02-21T23:06:13.492Z,205.27
2019-02-21T23:08:45.259Z,260.43
2019-02-21T23:11:13.914Z,248.40
2019-02-21T23:13:42.408Z,262.00
2019-02-21T23:16:10.916Z,360.48
2019-02-21T23:18:39.603Z,234.32
2019-02-21T23:21:08.036Z,244.72
2019-02-21T23:23:36.523Z,243.52
2019-02-21T23:26:05.250Z,287.05
2019-02-21T23:28:33.672Z,230.12
2019-02-21T23:31:02.098Z,191.07
2019-02-21T23:33:32.078Z,193.60
2019-02-21T23:36:00.502Z,209.72
2019-02-21T23:38:28.914Z,227.32
2019-02-21T23:40:57.670Z,225.50
2019-02-21T23:43:26.077Z,225.35
2019-02-21T23:45:54.835Z,204.15
2019-02-21T23:48:23.532Z,196.35
2019-02-21T23:50:51.952Z,203.50
2019-02-21T23:53:20.369Z,218.00
2019-02-21T23:55:48.790Z,211.77
2019-02-21T23:58:17.228Z,169.37
